Time,TemperatureF,DewpointF,PressureIn,WindDirection,WindDirectionDegrees,WindSpeedMPH,WindSpeedGustMPH,Humidity,HourlyPrecipIn,Conditions,Clouds,dailyrainin,SoftwareType,DateUTC
2013-02-19 00:00:00,42.3,29.4,29.20,NW,314,6.3,8.1,60,0.00,RA,,0.00,WeatherDisplay:10.37,2013-02-19 06:00:00,
2013-02-19 00:05:00,42.3,29.8,29.20,NW,318,5.8,8.1,61,0.00,RA,,0.00,WeatherDisplay:10.37,2013-02-19 06:05:00,
2013-02-19 00:10:00,42.1,29.2,29.20,WSW,255,11.4,13.8,60,0.00,CLR,,0.00,WeatherDisplay:10.37,2013-02-19 06:10:00,
2013-02-19 00:15:00,41.2,27.5,29.20,WSW,257,11.4,17.3,58,0.00,CLR,,0.00,WeatherDisplay:10.37,2013-02-19 06:15:00,
2013-02-19 00:20:00,40.5,26.4,29.20,NW,316,10.1,10.1,57,0.00,CLR,,0.00,WeatherDisplay:10.37,2013-02-19 06:20:00,
2013-02-19 00:25:00,39.9,25.9,29.20,North,0,6.3,10.4,57,0.00,CLR,,0.00,WeatherDisplay:10.37,2013-02-19 06:25:00,
2013-02-19 00:30:00,39.4,25.4,29.20,NNW,328,6.3,11.5,57,0.00,CLR,,0.00,WeatherDisplay:10.37,2013-02-19 06:30:00,
2013-02-19 00:35:00,39.0,25.1,29.20,NNW,330,4.9,8.1,57,0.00,CLR,,0.00,WeatherDisplay:10.37,2013-02-19 06:35:00,
2013-02-19 00:40:00,38.7,25.1,29.20,NNW,330,6.3,9.2,58,0.00,CLR,,0.00,WeatherDisplay:10.37,2013-02-19 06:40:00,
2013-02-19 00:45:00,38.5,25.0,29.20,NNW,333,4.0,5.8,58,0.00,CLR,,0.00,WeatherDisplay:10.37,2013-02-19 06:45:00,
2013-02-19 00:50:00,38.3,24.8,29.20,NNW,345,4.0,4.6,58,0.00,CLR,,0.00,WeatherDisplay:10.37,2013-02-19 06:50:00,
2013-02-19 00:55:00,38.1,25.0,29.20,NNW,330,4.0,10.4,59,0.00,CLR,,0.00,WeatherDisplay:10.37,2013-02-19 06:55:00,
2013-02-19 01:00:00,37.9,25.3,29.20,NNW,336,4.5,5.8,60,0.00,CLR,,0.00,WeatherDisplay:10.37,2013-02-19 07:00:00,
2013-02-19 01:05:00,37.8,25.1,29.20,NNW,336,3.6,3.6,60,0.00,CLR,,0.00,WeatherDisplay:10.37,2013-02-19 07:05:00,
2013-02-19 01:10:00,37.6,25.3,29.20,NW,321,4.9,5.8,61,0.00,CLR,,0.00,WeatherDisplay:10.37,2013-02-19 07:10:00,
2013-02-19 01:15:00,37.4,25.2,29.20,NW,320,3.1,3.5,61,0.00,CLR,,0.00,WeatherDisplay:10.37,2013-02-19 07:15:00,
2013-02-19 01:20:00,37.2,25.4,29.20,NW,318,4.5,5.8,62,0.00,CLR,,0.00,WeatherDisplay:10.37,2013-02-19 07:20:00,
2013-02-19 01:25:00,37.2,25.8,29.20,NW,315,5.8,5.8,63,0.00,CLR,,0.00,WeatherDisplay:10.37,2013-02-19 07:25:00,
2013-02-19 01:30:00,37.2,26.2,29.20,WNW,291,6.7,6.7,64,0.00,CLR,,0.00,WeatherDisplay:10.37,2013-02-19 07:30:00,
2013-02-19 01:35:00,37.0,26.4,29.20,NW,305,4.0,8.1,65,0.00,CLR,,0.00,WeatherDisplay:10.37,2013-02-19 07:35:00,
2013-02-19 01:40:00,37.0,26.4,29.20,NW,326,8.0,10.1,65,0.00,CLR,,0.00,WeatherDisplay:10.37,2013-02-19 07:40:00,
2013-02-19 01:45:00,36.9,26.2,29.20,NW,323,7.2,8.1,65,0.00,CLR,,0.00,WeatherDisplay:10.37,2013-02-19 07:45:00,
2013-02-19 01:50:00,36.7,24.9,29.20,NNW,338,4.9,8.1,62,0.00,CLR,,0.00,WeatherDisplay:10.37,2013-02-19 07:50:00,
2013-02-19 01:55:00,36.3,24.1,29.20,NNW,339,6.3,15.0,61,0.00,CLR,,0.00,WeatherDisplay:10.37,2013-02-19 07:55:00,
2013-02-19 02:00:00,36.1,23.6,29.20,NNW,339,7.2,10.4,60,0.00,CLR,,0.00,WeatherDisplay:10.37,2013-02-19 08:00:00,
2013-02-19 02:05:00,35.8,23.2,29.20,North,0,8.3,9.2,60,0.00,CLR,,0.00,WeatherDisplay:10.37,2013-02-19 08:05:00,
2013-02-19 02:10:00,35.6,22.7,29.20,WNW,288,6.7,8.1,59,0.00,CLR,,0.00,WeatherDisplay:10.37,2013-02-19 08:10:00,
2013-02-19 02:15:00,35.4,22.9,29.20,NW,322,6.3,6.3,60,0.00,CLR,,0.00,WeatherDisplay:10.37,2013-02-19 08:15:00,
2013-02-19 02:20:00,35.4,22.9,29.20,NW,312,5.8,9.2,60,0.00,CLR,,0.00,WeatherDisplay:10.37,2013-02-19 08:20:00,
2013-02-19 02:25:00,35.2,22.7,29.20,NW,312,6.3,8.1,60,0.00,CLR,,0.00,WeatherDisplay:10.37,2013-02-19 08:25:00,
2013-02-19 02:30:00,35.1,22.2,29.20,NNW,344,6.3,10.4,59,0.00,CLR,,0.00,WeatherDisplay:10.37,2013-02-19 08:30:00,
2013-02-19 02:35:00,34.9,22.4,29.20,WNW,293,4.5,9.2,60,0.00,CLR,,0.00,WeatherDisplay:10.37,2013-02-19 08:35:00,
2013-02-19 02:40:00,34.9,22.8,29.20,WNW,294,7.2,7.2,61,0.00,CLR,,0.00,WeatherDisplay:10.37,2013-02-19 08:40:00,
2013-02-19 02:45:00,34.7,22.2,29.20,NW,324,6.7,9.2,60,0.00,CLR,,0.00,WeatherDisplay:10.37,2013-02-19 08:45:00,
2013-02-19 02:50:00,34.5,22.1,29.20,NNW,329,6.7,8.0,60,0.00,CLR,,0.00,WeatherDisplay:10.37,2013-02-19 08:50:00,
2013-02-19 02:55:00,34.3,21.9,29.20,NW,321,5.8,10.4,60,0.00,CLR,,0.00,WeatherDisplay:10.37,2013-02-19 08:55:00,
2013-02-19 03:00:00,34.3,22.3,29.20,NW,311,5.4,9.2,61,0.00,CLR,,0.00,WeatherDisplay:10.37,2013-02-19 09:00:00,
2013-02-19 03:05:00,34.2,22.1,29.20,WNW,284,5.8,8.1,61,0.00,CLR,,0.00,WeatherDisplay:10.37,2013-02-19 09:05:00,
2013-02-19 03:10:00,34.2,22.1,29.20,WNW,286,7.2,8.1,61,0.00,CLR,,0.00,WeatherDisplay:10.37,2013-02-19 09:10:00,
2013-02-19 03:15:00,34.3,22.3,29.20,NW,314,6.7,8.1,61,0.00,CLR,,0.00,WeatherDisplay:10.37,2013-02-19 09:15:00,
2013-02-19 03:20:00,34.0,21.9,29.20,NW,319,6.7,8.1,61,0.00,CLR,,0.00,WeatherDisplay:10.37,2013-02-19 09:20:00,
2013-02-19 03:25:00,33.8,21.8,29.20,NW,316,7.6,8.1,61,0.00,CLR,,0.00,WeatherDisplay:10.37,2013-02-19 09:25:00,
2013-02-19 03:30:00,33.8,21.8,29.20,WNW,297,5.4,9.2,61,0.00,CLR,,0.00,WeatherDisplay:10.37,2013-02-19 09:30:00,
2013-02-19 03:35:00,33.4,21.0,29.20,WNW,299,7.2,9.2,60,0.00,CLR,,0.00,WeatherDisplay:10.37,2013-02-19 09:35:00,
2013-02-19 03:40:00,33.4,21.0,29.20,NNW,334,5.8,12.3,60,0.00,CLR,,0.00,WeatherDisplay:10.37,2013-02-19 09:40:00,
2013-02-19 03:45:00,33.3,20.9,29.20,NNW,329,8.3,8.3,60,0.00,CLR,,0.00,WeatherDisplay:10.37,2013-02-19 09:45:00,
2013-02-19 03:50:00,33.1,20.3,29.20,NW,310,6.7,10.4,59,0.00,CLR,,0.00,WeatherDisplay:10.37,2013-02-19 09:50:00,
2013-02-19 03:55:00,33.1,20.7,29.20,WNW,299,6.3,8.1,60,0.00,CLR,,0.00,WeatherDisplay:10.37,2013-02-19 09:55:00,
2013-02-19 04:00:00,33.1,20.3,29.20,North,353,6.3,8.1,59,0.00,CLR,,0.00,WeatherDisplay:10.37,2013-02-19 10:00:00,
2013-02-19 04:05:00,32.7,20.0,29.20,NNW,330,7.2,7.2,59,0.00,CLR,,0.00,WeatherDisplay:10.37,2013-02-19 10:05:00,
2013-02-19 04:10:00,32.7,19.6,29.20,NW,313,5.8,5.8,58,0.00,CLR,,0.00,WeatherDisplay:10.37,2013-02-19 10:10:00,
2013-02-19 04:15:00,32.5,19.4,29.20,NW,316,8.0,8.1,58,0.00,CLR,,0.00,WeatherDisplay:10.37,2013-02-19 10:15:00,
2013-02-19 04:20:00,32.5,19.4,29.20,NNW,330,5.8,5.8,58,0.00,CLR,,0.00,WeatherDisplay:10.37,2013-02-19 10:20:00,
2013-02-19 04:25:00,32.4,19.2,29.20,NNW,333,5.4,5.8,58,0.00,CLR,,0.00,WeatherDisplay:10.37,2013-02-19 10:25:00,
2013-02-19 04:30:00,32.2,19.0,29.20,NW,323,3.1,8.1,58,0.00,CLR,,0.00,WeatherDisplay:10.37,2013-02-19 10:30:00,
2013-02-19 04:35:00,32.2,19.0,29.20,NW,317,3.6,8.1,58,0.00,CLR,,0.00,WeatherDisplay:10.37,2013-02-19 10:35:00,
2013-02-19 04:40:00,32.0,19.3,29.20,NNW,336,5.4,5.8,59,0.00,CLR,,0.00,WeatherDisplay:10.37,2013-02-19 10:40:00,
2013-02-19 04:45:00,31.8,19.1,29.20,WNW,303,4.5,5.8,59,0.00,CLR,,0.00,WeatherDisplay:10.37,2013-02-19 10:45:00,
2013-02-19 04:50:00,31.8,19.1,29.20,NW,322,4.5,6.9,59,0.00,CLR,,0.00,WeatherDisplay:10.37,2013-02-19 10:50:00,
2013-02-19 04:55:00,31.6,18.9,29.20,NNW,327,5.4,8.1,59,0.00,CLR,,0.00,WeatherDisplay:10.37,2013-02-19 10:55:00,
2013-02-19 05:00:00,31.5,18.8,29.20,NNW,327,4.9,4.9,59,0.00,CLR,,0.00,WeatherDisplay:10.37,2013-02-19 11:00:00,
2013-02-19 05:05:00,31.5,18.8,29.20,West,276,5.4,5.8,59,0.00,CLR,,0.00,WeatherDisplay:10.37,2013-02-19 11:05:00,
2013-02-19 05:10:00,31.5,18.8,29.20,WNW,293,4.5,5.8,59,0.00,CLR,,0.00,WeatherDisplay:10.37,2013-02-19 11:10:00,
2013-02-19 05:15:00,31.5,18.8,29.20,NW,323,5.4,5.8,59,0.00,CLR,,0.00,WeatherDisplay:10.37,2013-02-19 11:15:00,
2013-02-19 05:20:00,31.3,18.6,29.20,WNW,284,4.5,5.8,59,0.00,CLR,,0.00,WeatherDisplay:10.37,2013-02-19 11:20:00,
2013-02-19 05:25:00,31.3,18.6,29.20,NW,313,3.1,8.1,59,0.00,CLR,,0.00,WeatherDisplay:10.37,2013-02-19 11:25:00,
2013-02-19 05:30:00,31.1,18.8,29.20,NNW,345,4.5,5.8,60,0.00,CLR,,0.00,WeatherDisplay:10.37,2013-02-19 11:30:00,
2013-02-19 05:35:00,31.1,18.8,29.20,NW,315,4.9,5.8,60,0.00,CLR,,0.00,WeatherDisplay:10.37,2013-02-19 11:35:00,
2013-02-19 05:40:00,31.1,18.8,29.20,NW,308,4.9,5.8,60,0.00,CLR,,0.00,WeatherDisplay:10.37,2013-02-19 11:40:00,
2013-02-19 05:45:00,30.9,18.3,29.20,WNW,288,5.4,5.8,59,0.00,CLR,,0.00,WeatherDisplay:10.37,2013-02-19 11:45:00,
2013-02-19 05:50:00,30.9,18.7,29.20,NW,319,6.3,6.3,60,0.00,CLR,,0.00,WeatherDisplay:10.37,2013-02-19 11:50:00,
2013-02-19 05:55:00,30.7,18.5,29.20,NW,304,4.5,5.8,60,0.00,CLR,,0.00,WeatherDisplay:10.37,2013-02-19 11:55:00,
2013-02-19 06:00:00,30.7,18.5,29.20,NW,315,4.0,7.6,60,0.00,CLR,,0.00,WeatherDisplay:10.37,2013-02-19 12:00:00,
2013-02-19 06:05:00,30.7,18.5,29.20,NW,312,5.4,5.8,60,0.00,CLR,,0.00,WeatherDisplay:10.37,2013-02-19 12:05:00,
2013-02-19 06:10:00,30.6,18.3,29.20,West,280,4.0,4.0,60,0.00,CLR,,0.00,WeatherDisplay:10.37,2013-02-19 12:10:00,
2013-02-19 06:15:00,30.4,18.1,29.20,NW,317,4.0,6.9,60,0.00,CLR,,0.00,WeatherDisplay:10.37,2013-02-19 12:15:00,
2013-02-19 06:20:00,30.4,18.5,29.20,WNW,298,3.6,5.8,61,0.00,CLR,,0.00,WeatherDisplay:10.37,2013-02-19 12:20:00,
2013-02-19 06:25:00,30.2,18.7,29.20,WNW,288,3.6,5.8,62,0.00,CLR,,0.00,WeatherDisplay:10.37,2013-02-19 12:25:00,
2013-02-19 06:30:00,30.2,18.7,29.20,West,271,3.1,5.8,62,0.00,CLR,,0.00,WeatherDisplay:10.37,2013-02-19 12:30:00,
2013-02-19 06:35:00,30.0,18.6,29.20,NW,313,3.6,5.8,62,0.00,CLR,,0.00,WeatherDisplay:10.37,2013-02-19 12:35:00,
2013-02-19 06:40:00,30.0,18.6,29.20,West,278,4.0,8.1,62,0.00,CLR,,0.00,WeatherDisplay:10.37,2013-02-19 12:40:00,
2013-02-19 06:45:00,29.8,18.4,29.20,WNW,293,4.5,5.8,62,0.00,CLR,,0.00,WeatherDisplay:10.37,2013-02-19 12:45:00,
2013-02-19 06:50:00,29.8,18.8,29.20,West,268,3.1,5.8,63,0.00,CLR,,0.00,WeatherDisplay:10.37,2013-02-19 12:50:00,
2013-02-19 06:55:00,29.8,18.8,29.20,WNW,292,4.0,5.8,63,0.00,CLR,,0.00,WeatherDisplay:10.37,2013-02-19 12:55:00,
2013-02-19 07:00:00,29.8,18.8,29.20,WNW,290,3.6,5.8,63,0.00,CLR,,0.00,WeatherDisplay:10.37,2013-02-19 13:00:00,
2013-02-19 07:05:00,29.8,18.8,29.20,WNW,302,3.1,4.6,63,0.00,CLR,,0.00,WeatherDisplay:10.37,2013-02-19 13:05:00,
2013-02-19 07:10:00,29.8,18.8,29.20,West,273,2.7,3.5,63,0.00,CLR,,0.00,WeatherDisplay:10.37,2013-02-19 13:10:00,
2013-02-19 07:15:00,30.0,18.9,29.20,WNW,291,3.1,4.6,63,0.00,CLR,,0.00,WeatherDisplay:10.37,2013-02-19 13:15:00,
2013-02-19 07:20:00,30.0,18.9,29.20,West,259,3.1,3.5,63,0.00,CLR,,0.00,WeatherDisplay:10.37,2013-02-19 13:20:00,
2013-02-19 07:25:00,30.0,19.3,29.20,WNW,298,3.6,5.8,64,0.00,CLR,,0.00,WeatherDisplay:10.37,2013-02-19 13:25:00,
2013-02-19 07:30:00,30.0,18.9,29.20,WNW,299,4.0,4.0,63,0.00,CLR,,0.00,WeatherDisplay:10.37,2013-02-19 13:30:00,
2013-02-19 07:35:00,30.2,19.1,29.20,WNW,287,3.6,4.0,63,0.00,CLR,,0.00,WeatherDisplay:10.37,2013-02-19 13:35:00,
2013-02-19 07:40:00,30.4,19.6,29.20,WSW,257,4.0,7.6,64,0.00,CLR,,0.00,WeatherDisplay:10.37,2013-02-19 13:40:00,
2013-02-19 07:45:00,30.9,20.2,29.20,WSW,239,3.6,3.6,64,0.00,CLR,,0.00,WeatherDisplay:10.37,2013-02-19 13:45:00,
2013-02-19 07:50:00,31.3,20.5,29.20,WSW,253,3.1,5.8,64,0.00,CLR,,0.00,WeatherDisplay:10.37,2013-02-19 13:50:00,
2013-02-19 07:55:00,31.6,20.8,29.20,West,269,2.2,3.5,64,0.00,CLR,,0.00,WeatherDisplay:10.37,2013-02-19 13:55:00,
2013-02-19 08:00:00,32.2,21.0,29.20,West,261,4.5,5.8,63,0.00,CLR,,0.00,WeatherDisplay:10.37,2013-02-19 14:00:00,
2013-02-19 08:05:00,32.9,21.7,29.20,WNW,290,2.7,4.6,63,0.00,CLR,,0.00,WeatherDisplay:10.37,2013-02-19 14:05:00,
2013-02-19 08:10:00,33.4,21.8,29.20,WNW,285,6.7,9.2,62,0.00,CLR,,0.00,WeatherDisplay:10.37,2013-02-19 14:10:00,
2013-02-19 08:16:00,34.0,21.5,29.20,WNW,300,4.9,5.8,60,0.00,CLR,,0.00,WeatherDisplay:10.37,2013-02-19 14:16:00,
2013-02-19 08:21:00,34.3,21.5,29.20,WNW,296,3.6,4.6,59,0.00,CLR,,0.00,WeatherDisplay:10.37,2013-02-19 14:21:00,
2013-02-19 08:26:00,34.7,21.4,29.20,West,269,4.5,7.6,58,0.00,CLR,,0.00,WeatherDisplay:10.37,2013-02-19 14:26:00,
2013-02-19 08:31:00,34.9,21.2,29.20,NW,317,4.5,8.1,57,0.00,CLR,,0.00,WeatherDisplay:10.37,2013-02-19 14:31:00,
2013-02-19 08:36:00,35.2,21.5,29.20,West,280,3.6,5.8,57,0.00,CLR,,0.00,WeatherDisplay:10.37,2013-02-19 14:36:00,
2013-02-19 08:41:00,35.2,21.5,29.20,WNW,297,5.8,9.2,57,0.00,CLR,,0.00,WeatherDisplay:10.37,2013-02-19 14:41:00,
2013-02-19 08:46:00,35.2,21.1,29.20,NW,307,6.3,8.1,56,0.00,CLR,,0.00,WeatherDisplay:10.37,2013-02-19 14:46:00,
2013-02-19 08:51:00,35.4,21.3,29.20,WNW,303,5.8,6.9,56,0.00,CLR,,0.00,WeatherDisplay:10.37,2013-02-19 14:51:00,
2013-02-19 08:56:00,35.4,21.3,29.20,WNW,289,4.9,6.9,56,0.00,CLR,,0.00,WeatherDisplay:10.37,2013-02-19 14:56:00,
2013-02-19 09:01:00,35.6,21.0,29.20,NW,325,5.4,9.2,55,0.00,CLR,,0.00,WeatherDisplay:10.37,2013-02-19 15:01:00,
2013-02-19 09:06:00,35.8,21.2,29.20,West,277,6.7,9.2,55,0.00,CLR,,0.00,WeatherDisplay:10.37,2013-02-19 15:06:00,
2013-02-19 09:11:00,36.0,20.5,29.20,NW,304,7.2,12.7,53,0.00,CLR,,0.00,WeatherDisplay:10.37,2013-02-19 15:11:00,
2013-02-19 09:16:00,36.1,20.6,29.20,NW,319,8.3,12.7,53,0.00,CLR,,0.00,WeatherDisplay:10.37,2013-02-19 15:16:00,
2013-02-19 09:21:00,36.7,21.1,29.20,WNW,297,7.2,12.7,53,0.00,CLR,,0.00,WeatherDisplay:10.37,2013-02-19 15:21:00,
2013-02-19 09:26:00,36.9,21.3,29.20,NW,317,4.5,5.8,53,0.00,CLR,,0.00,WeatherDisplay:10.37,2013-02-19 15:26:00,
2013-02-19 09:31:00,37.0,21.5,29.20,NNW,334,3.1,5.8,53,0.00,CLR,,0.00,WeatherDisplay:10.37,2013-02-19 15:31:00,
2013-02-19 09:36:00,37.6,21.5,29.20,WNW,302,5.4,8.1,52,0.00,CLR,,0.00,WeatherDisplay:10.37,2013-02-19 15:36:00,
2013-02-19 09:41:00,37.9,21.9,29.20,WNW,285,7.2,9.2,52,0.00,CLR,,0.00,WeatherDisplay:10.37,2013-02-19 15:41:00,
2013-02-19 09:46:00,38.3,22.2,29.20,WNW,291,6.7,9.2,52,0.00,CLR,,0.00,WeatherDisplay:10.37,2013-02-19 15:46:00,
2013-02-19 09:51:00,38.8,22.7,29.20,WNW,291,4.9,8.1,52,0.00,CLR,,0.00,WeatherDisplay:10.37,2013-02-19 15:51:00,
2013-02-19 09:56:00,39.4,21.8,29.20,NW,320,6.3,8.1,49,0.00,CLR,,0.00,WeatherDisplay:10.37,2013-02-19 15:56:00,
2013-02-19 10:01:00,40.3,22.6,29.20,NW,313,4.5,5.8,49,0.00,CLR,,0.00,WeatherDisplay:10.37,2013-02-19 16:01:00,
2013-02-19 10:06:00,41.2,23.4,29.20,NW,304,6.3,8.1,49,0.00,CLR,,0.00,WeatherDisplay:10.37,2013-02-19 16:06:00,
2013-02-19 10:11:00,41.5,23.8,29.20,WSW,258,6.7,9.2,49,0.00,CLR,,0.00,WeatherDisplay:10.37,2013-02-19 16:11:00,
2013-02-19 10:16:00,41.9,24.1,29.20,SW,229,4.5,5.8,49,0.00,CLR,,0.00,WeatherDisplay:10.37,2013-02-19 16:16:00,
2013-02-19 10:21:00,42.4,24.6,29.20,NW,324,6.7,10.4,49,0.00,CLR,,0.00,WeatherDisplay:10.37,2013-02-19 16:21:00,
2013-02-19 10:26:00,43.2,25.3,29.20,WSW,258,6.7,8.1,49,0.00,CLR,,0.00,WeatherDisplay:10.37,2013-02-19 16:26:00,
2013-02-19 10:31:00,43.3,23.9,29.20,WNW,291,8.3,12.7,46,0.00,CLR,,0.00,WeatherDisplay:10.37,2013-02-19 16:31:00,
2013-02-19 10:36:00,43.9,25.9,29.20,WNW,289,6.7,8.1,49,0.00,CLR,,0.00,WeatherDisplay:10.37,2013-02-19 16:36:00,
2013-02-19 10:41:00,44.4,24.9,29.20,WSW,254,7.2,10.4,46,0.00,CLR,,0.00,WeatherDisplay:10.37,2013-02-19 16:41:00,
2013-02-19 10:46:00,44.6,25.1,29.20,WNW,283,7.6,8.1,46,0.00,CLR,,0.00,WeatherDisplay:10.37,2013-02-19 16:46:00,
2013-02-19 10:51:00,45.0,25.4,29.20,NNW,331,5.4,5.8,46,0.00,CLR,,0.00,WeatherDisplay:10.37,2013-02-19 16:51:00,
2013-02-19 10:56:00,45.5,25.9,29.20,North,0,4.9,5.8,46,0.00,CLR,,0.00,WeatherDisplay:10.37,2013-02-19 16:56:00,
2013-02-19 11:01:00,45.9,26.2,29.20,NW,316,6.3,11.5,46,0.00,CLR,,0.00,WeatherDisplay:10.37,2013-02-19 17:01:00,
2013-02-19 11:06:00,46.2,26.6,29.20,WNW,297,5.8,6.9,46,0.00,CLR,,0.00,WeatherDisplay:10.37,2013-02-19 17:06:00,
2013-02-19 11:11:00,46.4,26.2,29.20,NNW,334,8.3,10.4,45,0.00,CLR,,0.00,WeatherDisplay:10.37,2013-02-19 17:11:00,
2013-02-19 11:16:00,46.2,26.6,29.20,North,0,5.4,9.2,46,0.00,CLR,,0.00,WeatherDisplay:10.37,2013-02-19 17:16:00,
2013-02-19 11:21:00,46.2,26.6,29.20,WNW,300,6.3,12.7,46,0.00,CLR,,0.00,WeatherDisplay:10.37,2013-02-19 17:21:00,
2013-02-19 11:26:00,46.2,26.6,29.20,NNW,332,8.3,11.5,46,0.00,CLR,,0.00,WeatherDisplay:10.37,2013-02-19 17:26:00,
2013-02-19 11:31:00,46.4,26.2,29.20,NW,312,4.9,5.8,45,0.00,CLR,,0.00,WeatherDisplay:10.37,2013-02-19 17:31:00,
2013-02-19 11:36:00,46.2,26.6,29.20,NNW,329,6.7,12.7,46,0.00,CLR,,0.00,WeatherDisplay:10.37,2013-02-19 17:36:00,
2013-02-19 11:41:00,46.0,26.4,29.20,WNW,289,7.6,11.5,46,0.00,CLR,,0.00,WeatherDisplay:10.37,2013-02-19 17:41:00,
2013-02-19 11:46:00,46.0,26.4,29.20,WNW,297,5.4,10.9,46,0.00,CLR,,0.00,WeatherDisplay:10.37,2013-02-19 17:46:00,
2013-02-19 11:51:00,46.2,26.6,29.20,West,277,8.3,11.5,46,0.00,CLR,,0.00,WeatherDisplay:10.37,2013-02-19 17:51:00,
2013-02-19 11:56:00,46.2,26.6,29.20,West,278,7.2,9.2,46,0.00,CLR,,0.00,WeatherDisplay:10.37,2013-02-19 17:56:00,
2013-02-19 12:01:00,46.0,26.4,29.20,NW,310,7.2,9.2,46,0.00,CLR,,0.00,WeatherDisplay:10.37,2013-02-19 18:01:00,
2013-02-19 12:06:00,46.2,26.6,29.20,NNW,337,6.3,8.1,46,0.00,CLR,,0.00,WeatherDisplay:10.37,2013-02-19 18:06:00,
2013-02-19 12:11:00,46.2,26.6,29.20,WSW,258,7.6,10.4,46,0.00,CLR,,0.00,WeatherDisplay:10.37,2013-02-19 18:11:00,
2013-02-19 12:16:00,46.4,26.2,29.20,NNW,333,8.3,11.5,45,0.00,CLR,,0.00,WeatherDisplay:10.37,2013-02-19 18:16:00,
2013-02-19 12:21:00,46.2,26.6,29.20,NNW,334,7.2,12.7,46,0.00,CLR,,0.00,WeatherDisplay:10.37,2013-02-19 18:21:00,
2013-02-19 12:26:00,46.4,26.2,29.20,NW,321,6.3,8.1,45,0.00,CLR,,0.00,WeatherDisplay:10.37,2013-02-19 18:26:00,
2013-02-19 12:31:00,46.4,26.2,29.20,WNW,297,5.4,8.1,45,0.00,CLR,,0.00,WeatherDisplay:10.37,2013-02-19 18:31:00,
2013-02-19 12:36:00,46.6,26.4,29.20,WNW,296,6.3,9.2,45,0.00,CLR,,0.00,WeatherDisplay:10.37,2013-02-19 18:36:00,
2013-02-19 12:41:00,46.6,26.4,29.20,WNW,301,7.6,15.0,45,0.00,CLR,,0.00,WeatherDisplay:10.37,2013-02-19 18:41:00,
2013-02-19 12:46:00,46.2,26.6,29.20,NNW,334,8.3,11.5,46,0.00,CLR,,0.00,WeatherDisplay:10.37,2013-02-19 18:46:00,
2013-02-19 12:51:00,46.0,26.4,29.20,North,353,8.0,10.4,46,0.00,CLR,,0.00,WeatherDisplay:10.37,2013-02-19 18:51:00,
2013-02-19 12:56:00,46.2,26.6,29.20,WNW,288,8.0,10.4,46,0.00,CLR,,0.00,WeatherDisplay:10.37,2013-02-19 18:56:00,
2013-02-19 13:01:00,46.4,26.2,29.20,WSW,245,5.8,9.2,45,0.00,CLR,,0.00,WeatherDisplay:10.37,2013-02-19 19:01:00,
2013-02-19 13:06:00,46.6,26.4,29.20,NNW,346,8.0,10.4,45,0.00,CLR,,0.00,WeatherDisplay:10.37,2013-02-19 19:06:00,
2013-02-19 13:11:00,46.8,26.5,29.20,West,280,8.3,11.5,45,0.00,CLR,,0.00,WeatherDisplay:10.37,2013-02-19 19:11:00,
2013-02-19 13:16:00,46.8,26.5,29.20,NNW,327,10.1,12.7,45,0.00,CLR,,0.00,WeatherDisplay:10.37,2013-02-19 19:16:00,
2013-02-19 13:21:00,46.6,26.4,29.20,North,353,6.7,8.1,45,0.00,CLR,,0.00,WeatherDisplay:10.37,2013-02-19 19:21:00,
2013-02-19 13:26:00,46.6,26.4,29.20,WNW,283,6.7,12.7,45,0.00,CLR,,0.00,WeatherDisplay:10.37,2013-02-19 19:26:00,
2013-02-19 13:31:00,46.6,26.4,29.20,NW,326,9.2,17.3,45,0.00,CLR,,0.00,WeatherDisplay:10.37,2013-02-19 19:31:00,
2013-02-19 13:36:00,46.8,26.5,29.20,NNW,338,5.8,9.2,45,0.00,CLR,,0.00,WeatherDisplay:10.37,2013-02-19 19:36:00,
2013-02-19 13:41:00,46.8,26.5,29.20,NNW,341,7.2,8.1,45,0.00,CLR,,0.00,WeatherDisplay:10.37,2013-02-19 19:41:00,
2013-02-19 13:46:00,46.8,26.5,29.20,North,0,8.0,12.7,45,0.00,CLR,,0.00,WeatherDisplay:10.37,2013-02-19 19:46:00,
2013-02-19 13:51:00,46.8,26.5,29.20,WSW,256,9.2,11.5,45,0.00,CLR,,0.00,WeatherDisplay:10.37,2013-02-19 19:51:00,
2013-02-19 13:56:00,46.4,26.2,29.20,North,357,8.0,11.5,45,0.00,CLR,,0.00,WeatherDisplay:10.37,2013-02-19 19:56:00,
2013-02-19 14:01:00,46.6,26.4,29.20,NW,313,4.5,5.8,45,0.00,CLR,,0.00,WeatherDisplay:10.37,2013-02-19 20:01:00,
2013-02-19 14:06:00,46.8,26.5,29.20,NW,319,8.3,10.4,45,0.00,CLR,,0.00,WeatherDisplay:10.37,2013-02-19 20:06:00,
2013-02-19 14:11:00,46.9,26.7,29.20,NNW,343,7.6,11.5,45,0.00,CLR,,0.00,WeatherDisplay:10.37,2013-02-19 20:11:00,
2013-02-19 14:16:00,46.9,26.7,29.20,NW,316,7.2,10.4,45,0.00,CLR,,0.00,WeatherDisplay:10.37,2013-02-19 20:16:00,
2013-02-19 14:21:00,46.9,26.7,29.20,NW,325,8.7,10.4,45,0.00,CLR,,0.00,WeatherDisplay:10.37,2013-02-19 20:21:00,
2013-02-19 14:26:00,46.8,26.5,29.20,NW,319,10.1,13.8,45,0.00,CLR,,0.00,WeatherDisplay:10.37,2013-02-19 20:26:00,
2013-02-19 14:31:00,46.4,26.2,29.20,NNW,338,8.3,11.5,45,0.00,CLR,,0.00,WeatherDisplay:10.37,2013-02-19 20:31:00,
2013-02-19 14:36:00,46.4,26.2,29.20,NW,320,6.7,8.1,45,0.00,CLR,,0.00,WeatherDisplay:10.37,2013-02-19 20:36:00,
2013-02-19 14:41:00,46.4,26.2,29.20,NNW,335,8.3,9.2,45,0.00,CLR,,0.00,WeatherDisplay:10.37,2013-02-19 20:41:00,
2013-02-19 14:46:00,46.4,26.2,29.20,WNW,301,10.9,15.0,45,0.00,CLR,,0.00,WeatherDisplay:10.37,2013-02-19 20:46:00,
2013-02-19 14:51:00,46.4,26.2,29.20,NNW,343,9.2,12.7,45,0.00,CLR,,0.00,WeatherDisplay:10.37,2013-02-19 20:51:00,
2013-02-19 14:56:00,46.4,26.2,29.20,NNW,332,9.6,13.8,45,0.00,CLR,,0.00,WeatherDisplay:10.37,2013-02-19 20:56:00,
2013-02-19 15:01:00,46.6,26.4,29.20,NNW,327,7.2,11.5,45,0.00,CLR,,0.00,WeatherDisplay:10.37,2013-02-19 21:01:00,
2013-02-19 15:06:00,46.6,26.4,29.20,NW,322,6.3,8.1,45,0.00,CLR,,0.00,WeatherDisplay:10.37,2013-02-19 21:06:00,
2013-02-19 15:11:00,46.6,26.4,29.20,West,265,5.8,8.1,45,0.00,CLR,,0.00,WeatherDisplay:10.37,2013-02-19 21:11:00,
2013-02-19 15:16:00,46.8,26.5,29.20,WNW,298,6.3,10.4,45,0.00,CLR,,0.00,WeatherDisplay:10.37,2013-02-19 21:16:00,
2013-02-19 15:21:00,46.6,26.4,29.20,WSW,245,5.8,8.1,45,0.00,CLR,,0.00,WeatherDisplay:10.37,2013-02-19 21:21:00,
2013-02-19 15:26:00,46.4,26.2,29.20,NW,305,6.7,8.1,45,0.00,CLR,,0.00,WeatherDisplay:10.37,2013-02-19 21:26:00,
2013-02-19 15:31:00,46.4,26.2,29.20,NW,317,10.1,13.8,45,0.00,CLR,,0.00,WeatherDisplay:10.37,2013-02-19 21:31:00,
2013-02-19 15:36:00,46.4,26.2,29.20,NW,326,10.1,11.5,45,0.00,CLR,,0.00,WeatherDisplay:10.37,2013-02-19 21:36:00,
2013-02-19 15:41:00,46.2,26.6,29.20,North,357,4.0,5.8,46,0.00,CLR,,0.00,WeatherDisplay:10.37,2013-02-19 21:41:00,
2013-02-19 15:46:00,46.0,26.4,29.20,WSW,252,6.7,11.5,46,0.00,CLR,,0.00,WeatherDisplay:10.37,2013-02-19 21:46:00,
2013-02-19 15:51:00,46.2,26.6,29.20,WSW,257,9.2,9.2,46,0.00,CLR,,0.00,WeatherDisplay:10.37,2013-02-19 21:51:00,
2013-02-19 15:56:00,46.0,26.4,29.20,SSW,202,5.8,10.4,46,0.00,CLR,,0.00,WeatherDisplay:10.37,2013-02-19 21:56:00,
2013-02-19 16:01:00,45.9,26.2,29.20,NNW,327,8.7,10.4,46,0.00,CLR,,0.00,WeatherDisplay:10.37,2013-02-19 22:01:00,
2013-02-19 16:06:00,45.9,26.2,29.20,North,353,4.5,10.4,46,0.00,CLR,,0.00,WeatherDisplay:10.37,2013-02-19 22:06:00,
2013-02-19 16:11:00,45.9,26.2,29.20,NNW,338,8.7,10.4,46,0.00,CLR,,0.00,WeatherDisplay:10.37,2013-02-19 22:11:00,
2013-02-19 16:16:00,45.5,25.9,29.20,NW,306,7.6,9.2,46,0.00,CLR,,0.00,WeatherDisplay:10.37,2013-02-19 22:16:00,
2013-02-19 16:21:00,45.5,25.9,29.20,NW,324,4.9,9.2,46,0.00,CLR,,0.00,WeatherDisplay:10.37,2013-02-19 22:21:00,
2013-02-19 16:26:00,45.3,25.7,29.20,NNW,340,4.0,9.2,46,0.00,CLR,,0.00,WeatherDisplay:10.37,2013-02-19 22:26:00,
2013-02-19 16:31:00,45.3,25.7,29.20,NNW,338,6.3,8.1,46,0.00,CLR,,0.00,WeatherDisplay:10.37,2013-02-19 22:31:00,
2013-02-19 16:36:00,45.1,25.6,29.20,North,5,8.7,8.7,46,0.00,CLR,,0.00,WeatherDisplay:10.37,2013-02-19 22:36:00,
2013-02-19 16:41:00,44.8,25.2,29.20,NW,309,5.4,5.8,46,0.00,CLR,,0.00,WeatherDisplay:10.37,2013-02-19 22:41:00,
2013-02-19 16:46:00,44.6,25.1,29.20,NW,320,6.7,8.1,46,0.00,CLR,,0.00,WeatherDisplay:10.37,2013-02-19 22:46:00,
2013-02-19 16:51:00,44.4,24.9,29.20,NW,316,6.3,8.1,46,0.00,CLR,,0.00,WeatherDisplay:10.37,2013-02-19 22:51:00,
2013-02-19 16:56:00,44.1,24.6,29.20,NNW,340,7.6,12.7,46,0.00,CLR,,0.00,WeatherDisplay:10.37,2013-02-19 22:56:00,
2013-02-19 17:01:00,43.7,24.2,29.20,NW,313,5.8,6.3,46,0.00,CLR,,0.00,WeatherDisplay:10.37,2013-02-19 23:01:00,
2013-02-19 17:06:00,43.5,24.1,29.20,WNW,303,7.6,12.7,46,0.00,CLR,,0.00,WeatherDisplay:10.37,2013-02-19 23:06:00,
2013-02-19 17:11:00,43.3,23.9,29.20,West,272,8.3,9.2,46,0.00,CLR,,0.00,WeatherDisplay:10.37,2013-02-19 23:11:00,
2013-02-19 17:16:00,43.0,23.6,29.20,SSW,207,5.8,8.1,46,0.00,CLR,,0.00,WeatherDisplay:10.37,2013-02-19 23:16:00,
2013-02-19 17:21:00,42.8,23.4,29.20,WNW,301,8.7,12.7,46,0.00,CLR,,0.00,WeatherDisplay:10.37,2013-02-19 23:21:00,
2013-02-19 17:26:00,42.4,23.6,29.20,NNW,330,4.0,8.1,47,0.00,CLR,,0.00,WeatherDisplay:10.37,2013-02-19 23:26:00,
2013-02-19 17:31:00,42.1,23.3,29.20,NNW,329,4.9,4.9,47,0.00,CLR,,0.00,WeatherDisplay:10.37,2013-02-19 23:31:00,
2013-02-19 17:36:00,41.7,22.9,29.20,NNW,331,4.0,8.1,47,0.00,CLR,,0.00,WeatherDisplay:10.37,2013-02-19 23:36:00,
2013-02-19 17:41:00,41.5,22.8,29.20,NNW,344,4.0,5.8,47,0.00,CLR,,0.00,WeatherDisplay:10.37,2013-02-19 23:41:00,
2013-02-19 17:46:00,41.0,22.3,29.20,WNW,298,4.5,5.8,47,0.00,CLR,,0.00,WeatherDisplay:10.37,2013-02-19 23:46:00,
2013-02-19 17:51:00,40.6,22.0,29.20,NW,311,6.3,8.1,47,0.00,CLR,,0.00,WeatherDisplay:10.37,2013-02-19 23:51:00,
2013-02-19 17:56:00,40.5,21.8,29.20,NW,316,3.1,4.6,47,0.00,CLR,,0.00,WeatherDisplay:10.37,2013-02-19 23:56:00,
2013-02-19 18:01:00,39.9,21.3,29.20,NW,320,4.0,4.0,47,0.00,CLR,,0.00,WeatherDisplay:10.37,2013-02-20 00:01:00,
2013-02-19 18:06:00,39.6,21.0,29.20,NW,316,3.6,3.6,47,0.00,CLR,,0.00,WeatherDisplay:10.37,2013-02-20 00:06:00,
2013-02-19 18:11:00,39.2,20.6,29.20,NW,321,0.0,3.5,47,0.00,CLR,,0.00,WeatherDisplay:10.37,2013-02-20 00:11:00,
2013-02-19 18:16:00,38.7,20.1,29.20,NW,314,2.7,3.5,47,0.00,CLR,,0.00,WeatherDisplay:10.37,2013-02-20 00:16:00,
2013-02-19 18:21:00,38.5,20.0,29.20,NW,309,2.2,3.5,47,0.00,CLR,,0.00,WeatherDisplay:10.37,2013-02-20 00:21:00,
2013-02-19 18:26:00,37.9,19.5,29.20,NW,309,0.0,0.0,47,0.00,CLR,,0.00,WeatherDisplay:10.37,2013-02-20 00:26:00,
2013-02-19 18:31:00,37.4,19.0,29.20,NW,309,0.0,0.0,47,0.00,CLR,,0.00,WeatherDisplay:10.37,2013-02-20 00:31:00,
2013-02-19 18:36:00,37.0,19.1,29.20,NW,309,0.0,0.0,48,0.00,CLR,,0.00,WeatherDisplay:10.37,2013-02-20 00:36:00,
2013-02-19 18:41:00,36.9,19.0,29.20,NW,309,0.0,0.0,48,0.00,CLR,,0.00,WeatherDisplay:10.37,2013-02-20 00:41:00,
2013-02-19 18:46:00,36.5,18.6,29.20,NW,309,0.0,0.0,48,0.00,CLR,,0.00,WeatherDisplay:10.37,2013-02-20 00:46:00,
2013-02-19 18:51:00,36.1,18.3,29.20,NW,309,0.0,0.0,48,0.00,CLR,,0.00,WeatherDisplay:10.37,2013-02-20 00:51:00,
2013-02-19 18:56:00,35.8,18.0,29.20,NW,309,0.0,0.0,48,0.00,CLR,,0.00,WeatherDisplay:10.37,2013-02-20 00:56:00,
2013-02-19 19:01:00,35.8,18.0,29.20,NW,309,2.2,3.5,48,0.00,CLR,,0.00,WeatherDisplay:10.37,2013-02-20 01:01:00,
2013-02-19 19:06:00,35.4,17.7,29.20,NW,309,0.0,0.0,48,0.00,CLR,,0.00,WeatherDisplay:10.37,2013-02-20 01:06:00,
2013-02-19 19:11:00,34.9,17.2,29.20,NW,309,0.0,0.0,48,0.00,CLR,,0.00,WeatherDisplay:10.37,2013-02-20 01:11:00,
2013-02-19 19:16:00,34.9,17.2,29.20,NW,309,0.0,2.3,48,0.00,CLR,,0.00,WeatherDisplay:10.37,2013-02-20 01:16:00,
2013-02-19 19:21:00,34.7,17.0,29.20,NW,309,0.0,0.0,48,0.00,CLR,,0.00,WeatherDisplay:10.37,2013-02-20 01:21:00,
2013-02-19 19:26:00,34.3,16.7,29.20,NW,309,0.0,0.0,48,0.00,CLR,,0.00,WeatherDisplay:10.37,2013-02-20 01:26:00,
2013-02-19 19:31:00,34.0,16.3,29.20,NW,309,0.0,0.0,48,0.00,CLR,,0.00,WeatherDisplay:10.37,2013-02-20 01:31:00,
2013-02-19 19:36:00,34.0,16.3,29.20,NW,309,0.0,0.0,48,0.00,CLR,,0.00,WeatherDisplay:10.37,2013-02-20 01:36:00,
2013-02-19 19:41:00,33.6,16.5,29.20,NW,309,0.0,0.0,49,0.00,CLR,,0.00,WeatherDisplay:10.37,2013-02-20 01:41:00,
2013-02-19 19:46:00,33.6,16.5,29.20,NW,309,0.0,2.3,49,0.00,CLR,,0.00,WeatherDisplay:10.37,2013-02-20 01:46:00,
2013-02-19 19:51:00,33.6,16.5,29.20,NW,309,2.7,2.7,49,0.00,CLR,,0.00,WeatherDisplay:10.37,2013-02-20 01:51:00,
2013-02-19 19:56:00,33.6,16.5,29.20,NW,309,2.7,3.6,49,0.00,CLR,,0.00,WeatherDisplay:10.37,2013-02-20 01:56:00,
2013-02-19 20:01:00,33.4,16.3,29.20,NW,309,2.7,3.5,49,0.00,CLR,,0.00,WeatherDisplay:10.37,2013-02-20 02:01:00,
2013-02-19 20:06:00,33.1,16.0,29.20,NW,311,3.1,3.6,49,0.00,CLR,,0.00,WeatherDisplay:10.37,2013-02-20 02:06:00,
2013-02-19 20:11:00,32.7,15.6,29.20,NW,312,0.0,0.0,49,0.00,CLR,,0.00,WeatherDisplay:10.37,2013-02-20 02:11:00,
2013-02-19 20:16:00,32.7,15.6,29.20,NW,314,3.1,3.5,49,0.00,CLR,,0.00,WeatherDisplay:10.37,2013-02-20 02:16:00,
2013-02-19 20:21:00,32.7,15.6,29.20,NNW,344,2.2,3.5,49,0.00,CLR,,0.00,WeatherDisplay:10.37,2013-02-20 02:21:00,
2013-02-19 20:26:00,32.9,15.8,29.20,NNW,344,2.7,3.5,49,0.00,CLR,,0.00,WeatherDisplay:10.37,2013-02-20 02:26:00,
2013-02-19 20:31:00,32.9,15.8,29.20,NNW,344,2.7,3.5,49,0.00,CLR,,0.00,WeatherDisplay:10.37,2013-02-20 02:31:00,
2013-02-19 20:36:00,33.1,16.0,29.20,NNW,344,2.7,3.5,49,0.00,CLR,,0.00,WeatherDisplay:10.37,2013-02-20 02:36:00,
2013-02-19 20:41:00,33.1,16.0,29.20,NNW,345,2.7,3.5,49,0.00,CLR,,0.00,WeatherDisplay:10.37,2013-02-20 02:41:00,
2013-02-19 20:46:00,33.1,16.0,29.20,NNW,345,2.2,3.5,49,0.00,CLR,,0.00,WeatherDisplay:10.37,2013-02-20 02:46:00,
2013-02-19 20:51:00,33.1,16.0,29.20,NNW,345,0.0,2.3,49,0.00,CLR,,0.00,WeatherDisplay:10.37,2013-02-20 02:51:00,
2013-02-19 20:56:00,32.9,15.8,29.20,NNW,345,2.7,3.5,49,0.00,CLR,,0.00,WeatherDisplay:10.37,2013-02-20 02:56:00,
2013-02-19 21:01:00,32.7,15.6,29.20,NNW,345,2.2,3.1,49,0.00,CLR,,0.00,WeatherDisplay:10.37,2013-02-20 03:01:00,
2013-02-19 21:06:00,32.5,15.5,29.20,NNW,343,3.1,3.5,49,0.00,CLR,,0.00,WeatherDisplay:10.37,2013-02-20 03:06:00,
2013-02-19 21:11:00,32.5,15.5,29.20,NNW,343,2.2,2.3,49,0.00,CLR,,0.00,WeatherDisplay:10.37,2013-02-20 03:11:00,
2013-02-19 21:16:00,32.4,15.3,29.20,NNW,344,2.2,2.3,49,0.00,CLR,,0.00,WeatherDisplay:10.37,2013-02-20 03:16:00,
2013-02-19 21:21:00,32.4,15.3,29.20,NNW,344,2.2,2.3,49,0.00,CLR,,0.00,WeatherDisplay:10.37,2013-02-20 03:21:00,
2013-02-19 21:26:00,32.4,15.3,29.20,NNW,344,2.2,2.3,49,0.00,CLR,,0.00,WeatherDisplay:10.37,2013-02-20 03:26:00,
2013-02-19 21:31:00,32.5,15.5,29.20,NNW,339,2.2,3.5,49,0.00,CLR,,0.00,WeatherDisplay:10.37,2013-02-20 03:31:00,
2013-02-19 21:36:00,32.4,15.3,29.20,NNW,339,2.2,2.7,49,0.00,CLR,,0.00,WeatherDisplay:10.37,2013-02-20 03:36:00,
2013-02-19 21:41:00,32.4,15.3,29.20,NNW,339,2.7,3.5,49,0.00,CLR,,0.00,WeatherDisplay:10.37,2013-02-20 03:41:00,
2013-02-19 21:46:00,32.2,15.1,29.20,NNW,337,3.1,3.5,49,0.00,CLR,,0.00,WeatherDisplay:10.37,2013-02-20 03:46:00,
2013-02-19 21:51:00,32.0,15.0,29.20,NNW,337,2.7,2.7,49,0.00,CLR,,0.00,WeatherDisplay:10.37,2013-02-20 03:51:00,
2013-02-19 21:56:00,31.5,14.5,29.20,NNW,337,2.2,3.5,49,0.00,CLR,,0.00,WeatherDisplay:10.37,2013-02-20 03:56:00,
2013-02-19 22:01:00,31.1,14.1,29.20,NNW,337,0.0,3.5,49,0.00,CLR,,0.00,WeatherDisplay:10.37,2013-02-20 04:01:00,
2013-02-19 22:06:00,30.9,14.0,29.20,NNW,337,0.0,0.0,49,0.00,CLR,,0.00,WeatherDisplay:10.37,2013-02-20 04:06:00,
2013-02-19 22:11:00,30.9,14.0,29.20,NNW,337,0.0,0.0,49,0.00,CLR,,0.00,WeatherDisplay:10.37,2013-02-20 04:11:00,
2013-02-19 22:16:00,30.7,13.8,29.20,NNW,337,0.0,0.0,49,0.00,CLR,,0.00,WeatherDisplay:10.37,2013-02-20 04:16:00,
2013-02-19 22:21:00,30.4,13.5,29.20,NNW,337,0.0,0.0,49,0.00,CLR,,0.00,WeatherDisplay:10.37,2013-02-20 04:21:00,
2013-02-19 22:26:00,30.2,13.3,29.20,NNW,337,0.0,0.0,49,0.00,CLR,,0.00,WeatherDisplay:10.37,2013-02-20 04:26:00,
2013-02-19 22:31:00,30.4,13.5,29.20,NNW,337,0.0,0.0,49,0.00,CLR,,0.00,WeatherDisplay:10.37,2013-02-20 04:31:00,
2013-02-19 22:36:00,30.2,13.3,29.20,NNW,337,0.0,0.0,49,0.00,CLR,,0.00,WeatherDisplay:10.37,2013-02-20 04:36:00,
2013-02-19 22:41:00,30.2,13.3,29.20,NNW,337,2.2,3.5,49,0.00,CLR,,0.00,WeatherDisplay:10.37,2013-02-20 04:41:00,
2013-02-19 22:46:00,30.2,13.3,29.20,NNW,337,2.2,2.3,49,0.00,CLR,,0.00,WeatherDisplay:10.37,2013-02-20 04:46:00,
2013-02-19 22:51:00,30.4,13.5,29.20,NNW,335,3.1,3.5,49,0.00,CLR,,0.00,WeatherDisplay:10.37,2013-02-20 04:51:00,
2013-02-19 22:56:00,30.2,13.3,29.20,NNW,335,2.7,3.5,49,0.00,CLR,,0.00,WeatherDisplay:10.37,2013-02-20 04:56:00,
2013-02-19 23:00:00,30.2,13.3,29.20,NNW,329,3.1,3.5,49,0.00,CLR,,0.00,WeatherDisplay:10.37,2013-02-20 05:00:00,
2013-02-19 23:01:00,30.2,13.3,29.20,NNW,329,2.2,2.3,49,0.00,CLR,,0.00,WeatherDisplay:10.37,2013-02-20 05:01:00,
2013-02-19 23:02:00,30.0,13.1,29.20,NNW,329,2.2,2.7,49,0.00,CLR,,0.00,WeatherDisplay:10.37,2013-02-20 05:02:00,
2013-02-19 23:04:00,30.0,13.1,29.20,NNW,329,2.2,3.5,49,0.00,CLR,,0.00,WeatherDisplay:10.37,2013-02-20 05:04:00,
2013-02-19 23:09:00,29.8,13.0,29.20,NNW,330,3.1,3.5,49,0.00,CLR,,0.00,WeatherDisplay:10.37,2013-02-20 05:09:00,
2013-02-19 23:14:00,29.8,13.0,29.20,NNW,331,2.7,3.6,49,0.00,CLR,,0.00,WeatherDisplay:10.37,2013-02-20 05:14:00,
2013-02-19 23:19:00,30.0,13.1,29.20,NW,325,3.1,3.5,49,0.00,CLR,,0.00,WeatherDisplay:10.37,2013-02-20 05:19:00,
2013-02-19 23:24:00,30.0,13.1,29.20,NNW,343,2.7,3.5,49,0.00,CLR,,0.00,WeatherDisplay:10.37,2013-02-20 05:24:00,
2013-02-19 23:29:00,30.0,13.1,29.20,NNW,344,2.7,5.8,49,0.00,CLR,,0.00,WeatherDisplay:10.37,2013-02-20 05:29:00,
2013-02-19 23:34:00,30.0,13.1,29.20,NNW,342,2.7,3.5,49,0.00,CLR,,0.00,WeatherDisplay:10.37,2013-02-20 05:34:00,
2013-02-19 23:39:00,29.8,13.0,29.20,NNW,346,3.1,3.1,49,0.00,CLR,,0.00,WeatherDisplay:10.37,2013-02-20 05:39:00,
2013-02-19 23:44:00,29.8,13.0,29.20,North,353,3.6,4.0,49,0.00,CLR,,0.00,WeatherDisplay:10.37,2013-02-20 05:44:00,
2013-02-19 23:49:00,30.0,13.1,29.20,North,0,3.1,3.5,49,0.00,CLR,,0.00,WeatherDisplay:10.37,2013-02-20 05:49:00,
2013-02-19 23:54:00,30.2,13.3,29.20,North,357,3.6,4.9,49,0.00,CLR,,0.00,WeatherDisplay:10.37,2013-02-20 05:54:00,
2013-02-19 23:59:00,30.2,13.3,29.20,North,353,3.6,4.6,49,0.00,CLR,,0.00,WeatherDisplay:10.37,2013-02-20 05:59:00,